sensor_id;sensor_type;location;lat;lon;timestamp;temperature;humidity
17364;DHT22;8799;43.594;13.526;2022-09-09T00:00:59;25.50;99.90
17364;DHT22;8799;43.594;13.526;2022-09-09T00:03:36;25.50;99.90
17364;DHT22;8799;43.594;13.526;2022-09-09T00:06:11;25.50;99.90
17364;DHT22;8799;43.594;13.526;2022-09-09T00:08:52;25.50;99.90
17364;DHT22;8799;43.594;13.526;2022-09-09T00:11:30;25.50;99.90
17364;DHT22;8799;43.594;13.526;2022-09-09T00:14:11;25.50;99.90
17364;DHT22;8799;43.594;13.526;2022-09-09T00:16:43;25.50;99.90
17364;DHT22;8799;43.594;13.526;2022-09-09T00:19:20;25.50;99.90
17364;DHT22;8799;43.594;13.526;2022-09-09T00:21:54;25.50;99.90
17364;DHT22;8799;43.594;13.526;2022-09-09T00:24:29;25.50;99.90
17364;DHT22;8799;43.594;13.526;2022-09-09T00:27:07;25.50;99.90
17364;DHT22;8799;43.594;13.526;2022-09-09T00:29:39;25.50;99.90
17364;DHT22;8799;43.594;13.526;2022-09-09T00:32:12;25.60;99.90
17364;DHT22;8799;43.594;13.526;2022-09-09T00:34:46;25.50;99.90
17364;DHT22;8799;43.594;13.526;2022-09-09T00:37:15;25.50;99.90
17364;DHT22;8799;43.594;13.526;2022-09-09T00:39:45;25.50;99.90
17364;DHT22;8799;43.594;13.526;2022-09-09T00:42:18;25.50;99.90
17364;DHT22;8799;43.594;13.526;2022-09-09T00:44:53;25.50;99.90
17364;DHT22;8799;43.594;13.526;2022-09-09T00:47:44;25.50;99.90
17364;DHT22;8799;43.594;13.526;2022-09-09T00:50:34;25.50;99.90
17364;DHT22;8799;43.594;13.526;2022-09-09T00:53:14;25.50;99.90
17364;DHT22;8799;43.594;13.526;2022-09-09T00:55:49;25.50;99.90
17364;DHT22;8799;43.594;13.526;2022-09-09T00:58:22;25.50;99.90
17364;DHT22;8799;43.594;13.526;2022-09-09T01:00:54;25.50;99.90
17364;DHT22;8799;43.594;13.526;2022-09-09T01:03:31;25.50;99.90
17364;DHT22;8799;43.594;13.526;2022-09-09T01:06:02;25.50;99.90
17364;DHT22;8799;43.594;13.526;2022-09-09T01:09:04;25.40;99.90
17364;DHT22;8799;43.594;13.526;2022-09-09T01:11:41;25.40;99.90
17364;DHT22;8799;43.594;13.526;2022-09-09T01:14:20;25.40;99.90
17364;DHT22;8799;43.594;13.526;2022-09-09T01:16:53;25.40;99.90
17364;DHT22;8799;43.594;13.526;2022-09-09T01:19:32;25.50;99.90
17364;DHT22;8799;43.594;13.526;2022-09-09T01:22:14;25.50;99.90
17364;DHT22;8799;43.594;13.526;2022-09-09T01:25:01;25.50;99.90
17364;DHT22;8799;43.594;13.526;2022-09-09T01:27:36;25.50;99.90
17364;DHT22;8799;43.594;13.526;2022-09-09T01:30:07;25.50;99.90
17364;DHT22;8799;43.594;13.526;2022-09-09T01:32:41;25.50;99.90
17364;DHT22;8799;43.594;13.526;2022-09-09T01:35:12;25.50;99.90
17364;DHT22;8799;43.594;13.526;2022-09-09T01:37:42;25.50;99.90
17364;DHT22;8799;43.594;13.526;2022-09-09T01:40:10;25.50;99.90
17364;DHT22;8799;43.594;13.526;2022-09-09T01:42:39;25.50;99.90
17364;DHT22;8799;43.594;13.526;2022-09-09T01:45:08;25.50;99.90
17364;DHT22;8799;43.594;13.526;2022-09-09T01:47:35;25.50;99.90
17364;DHT22;8799;43.594;13.526;2022-09-09T01:50:04;25.50;99.90
17364;DHT22;8799;43.594;13.526;2022-09-09T01:52:36;25.50;99.90
17364;DHT22;8799;43.594;13.526;2022-09-09T01:55:05;25.50;99.90
17364;DHT22;8799;43.594;13.526;2022-09-09T01:57:36;25.50;99.90
17364;DHT22;8799;43.594;13.526;2022-09-09T02:00:11;25.50;99.90
17364;DHT22;8799;43.594;13.526;2022-09-09T02:02:46;25.50;99.90
17364;DHT22;8799;43.594;13.526;2022-09-09T02:05:22;25.50;99.90
17364;DHT22;8799;43.594;13.526;2022-09-09T02:07:59;25.50;99.90
17364;DHT22;8799;43.594;13.526;2022-09-09T02:10:33;25.50;99.90
17364;DHT22;8799;43.594;13.526;2022-09-09T02:13:08;25.50;99.90
17364;DHT22;8799;43.594;13.526;2022-09-09T02:15:42;25.40;99.90
17364;DHT22;8799;43.594;13.526;2022-09-09T02:18:12;25.40;99.90
17364;DHT22;8799;43.594;13.526;2022-09-09T02:20:42;25.50;99.90
17364;DHT22;8799;43.594;13.526;2022-09-09T02:23:13;25.50;99.90
17364;DHT22;8799;43.594;13.526;2022-09-09T02:25:42;25.40;99.90
17364;DHT22;8799;43.594;13.526;2022-09-09T02:28:12;25.50;99.90
17364;DHT22;8799;43.594;13.526;2022-09-09T02:30:45;25.40;99.90
17364;DHT22;8799;43.594;13.526;2022-09-09T02:33:14;25.50;99.90
17364;DHT22;8799;43.594;13.526;2022-09-09T02:35:43;25.40;99.90
17364;DHT22;8799;43.594;13.526;2022-09-09T02:38:13;25.50;99.90
17364;DHT22;8799;43.594;13.526;2022-09-09T02:40:42;25.40;99.90
17364;DHT22;8799;43.594;13.526;2022-09-09T02:43:10;25.40;99.90
17364;DHT22;8799;43.594;13.526;2022-09-09T02:45:44;25.40;99.90
17364;DHT22;8799;43.594;13.526;2022-09-09T02:48:25;25.50;99.90
17364;DHT22;8799;43.594;13.526;2022-09-09T02:51:00;25.40;99.90
17364;DHT22;8799;43.594;13.526;2022-09-09T02:53:35;25.40;99.90
17364;DHT22;8799;43.594;13.526;2022-09-09T02:56:09;25.40;99.90
17364;DHT22;8799;43.594;13.526;2022-09-09T02:58:39;25.40;99.90
17364;DHT22;8799;43.594;13.526;2022-09-09T03:01:09;25.50;99.90
17364;DHT22;8799;43.594;13.526;2022-09-09T03:03:37;25.40;99.90
17364;DHT22;8799;43.594;13.526;2022-09-09T03:06:07;25.50;99.90
17364;DHT22;8799;43.594;13.526;2022-09-09T03:08:35;25.50;99.90
17364;DHT22;8799;43.594;13.526;2022-09-09T03:11:02;25.40;99.90
17364;DHT22;8799;43.594;13.526;2022-09-09T03:13:30;25.40;99.90
17364;DHT22;8799;43.594;13.526;2022-09-09T03:15:58;25.40;99.90
17364;DHT22;8799;43.594;13.526;2022-09-09T03:18:27;25.40;99.90
17364;DHT22;8799;43.594;13.526;2022-09-09T03:20:55;25.40;99.90
17364;DHT22;8799;43.594;13.526;2022-09-09T03:23:23;25.40;99.90
17364;DHT22;8799;43.594;13.526;2022-09-09T03:25:51;25.40;99.90
17364;DHT22;8799;43.594;13.526;2022-09-09T03:28:22;25.40;99.90
17364;DHT22;8799;43.594;13.526;2022-09-09T03:30:59;25.40;99.90
17364;DHT22;8799;43.594;13.526;2022-09-09T03:33:28;25.40;99.90
17364;DHT22;8799;43.594;13.526;2022-09-09T03:35:55;25.50;99.90
17364;DHT22;8799;43.594;13.526;2022-09-09T03:38:23;25.40;99.90
17364;DHT22;8799;43.594;13.526;2022-09-09T03:40:51;25.40;99.90
17364;DHT22;8799;43.594;13.526;2022-09-09T03:43:21;25.40;99.90
17364;DHT22;8799;43.594;13.526;2022-09-09T03:45:49;25.40;99.90
17364;DHT22;8799;43.594;13.526;2022-09-09T03:48:18;25.50;99.90
17364;DHT22;8799;43.594;13.526;2022-09-09T03:50:48;25.40;99.90
17364;DHT22;8799;43.594;13.526;2022-09-09T03:53:17;25.40;99.90
17364;DHT22;8799;43.594;13.526;2022-09-09T03:55:46;25.50;99.90
17364;DHT22;8799;43.594;13.526;2022-09-09T03:58:16;25.40;99.90
17364;DHT22;8799;43.594;13.526;2022-09-09T04:00:53;25.40;99.90
17364;DHT22;8799;43.594;13.526;2022-09-09T04:03:21;25.40;99.90
17364;DHT22;8799;43.594;13.526;2022-09-09T04:05:51;25.40;99.90
17364;DHT22;8799;43.594;13.526;2022-09-09T04:08:20;25.40;99.90
17364;DHT22;8799;43.594;13.526;2022-09-09T04:10:49;25.40;99.90
17364;DHT22;8799;43.594;13.526;2022-09-09T04:13:17;25.40;99.90
17364;DHT22;8799;43.594;13.526;2022-09-09T04:15:50;25.40;99.90
17364;DHT22;8799;43.594;13.526;2022-09-09T04:18:18;25.40;99.90
17364;DHT22;8799;43.594;13.526;2022-09-09T04:20:47;25.40;99.90
17364;DHT22;8799;43.594;13.526;2022-09-09T04:23:17;25.30;99.90
17364;DHT22;8799;43.594;13.526;2022-09-09T04:25:46;25.30;99.90
17364;DHT22;8799;43.594;13.526;2022-09-09T04:28:14;25.30;99.90
17364;DHT22;8799;43.594;13.526;2022-09-09T04:30:42;25.30;99.90
17364;DHT22;8799;43.594;13.526;2022-09-09T04:33:11;25.30;99.90
17364;DHT22;8799;43.594;13.526;2022-09-09T04:35:39;25.30;99.90
17364;DHT22;8799;43.594;13.526;2022-09-09T04:38:11;25.30;99.90
17364;DHT22;8799;43.594;13.526;2022-09-09T04:40:42;25.40;99.90
17364;DHT22;8799;43.594;13.526;2022-09-09T04:43:11;25.30;99.90
17364;DHT22;8799;43.594;13.526;2022-09-09T04:45:39;25.30;99.90
17364;DHT22;8799;43.594;13.526;2022-09-09T04:48:07;25.30;99.90
17364;DHT22;8799;43.594;13.526;2022-09-09T04:50:35;25.30;99.90
17364;DHT22;8799;43.594;13.526;2022-09-09T04:53:04;25.30;99.90
17364;DHT22;8799;43.594;13.526;2022-09-09T04:55:33;25.30;99.90
17364;DHT22;8799;43.594;13.526;2022-09-09T04:58:05;25.30;99.90
17364;DHT22;8799;43.594;13.526;2022-09-09T05:00:33;25.30;99.90
17364;DHT22;8799;43.594;13.526;2022-09-09T05:03:03;25.30;99.90
17364;DHT22;8799;43.594;13.526;2022-09-09T05:05:31;25.30;99.90
17364;DHT22;8799;43.594;13.526;2022-09-09T05:08:03;25.30;99.90
17364;DHT22;8799;43.594;13.526;2022-09-09T05:10:31;25.30;99.90
17364;DHT22;8799;43.594;13.526;2022-09-09T05:12:59;25.30;99.90
17364;DHT22;8799;43.594;13.526;2022-09-09T05:15:28;25.30;99.90
17364;DHT22;8799;43.594;13.526;2022-09-09T05:17:57;25.30;99.90
17364;DHT22;8799;43.594;13.526;2022-09-09T05:20:26;25.30;99.90
17364;DHT22;8799;43.594;13.526;2022-09-09T05:22:54;25.30;99.90
17364;DHT22;8799;43.594;13.526;2022-09-09T05:25:22;25.30;99.90
17364;DHT22;8799;43.594;13.526;2022-09-09T05:27:50;25.30;99.90
17364;DHT22;8799;43.594;13.526;2022-09-09T05:30:17;25.30;99.90
17364;DHT22;8799;43.594;13.526;2022-09-09T05:32:47;25.30;99.90
17364;DHT22;8799;43.594;13.526;2022-09-09T05:35:14;25.30;99.90
17364;DHT22;8799;43.594;13.526;2022-09-09T05:37:44;25.30;99.90
17364;DHT22;8799;43.594;13.526;2022-09-09T05:40:13;25.20;99.90
17364;DHT22;8799;43.594;13.526;2022-09-09T05:42:41;25.10;99.90
17364;DHT22;8799;43.594;13.526;2022-09-09T05:45:09;25.00;99.90
17364;DHT22;8799;43.594;13.526;2022-09-09T05:47:37;24.90;99.90
17364;DHT22;8799;43.594;13.526;2022-09-09T05:50:07;24.90;99.90
17364;DHT22;8799;43.594;13.526;2022-09-09T05:52:35;24.90;99.90
17364;DHT22;8799;43.594;13.526;2022-09-09T05:55:03;24.70;99.90
17364;DHT22;8799;43.594;13.526;2022-09-09T05:57:31;24.60;99.90
17364;DHT22;8799;43.594;13.526;2022-09-09T05:59:59;24.70;99.90
17364;DHT22;8799;43.594;13.526;2022-09-09T06:02:28;24.70;99.90
17364;DHT22;8799;43.594;13.526;2022-09-09T06:04:55;24.70;99.90
17364;DHT22;8799;43.594;13.526;2022-09-09T06:07:25;24.70;99.90
17364;DHT22;8799;43.594;13.526;2022-09-09T06:09:52;24.70;99.90
17364;DHT22;8799;43.594;13.526;2022-09-09T06:12:21;24.70;99.90
17364;DHT22;8799;43.594;13.526;2022-09-09T06:14:49;24.80;99.90
17364;DHT22;8799;43.594;13.526;2022-09-09T06:17:18;24.70;99.90
17364;DHT22;8799;43.594;13.526;2022-09-09T06:19:46;24.80;99.90
17364;DHT22;8799;43.594;13.526;2022-09-09T06:22:14;24.80;99.90
17364;DHT22;8799;43.594;13.526;2022-09-09T06:24:44;24.80;99.90
17364;DHT22;8799;43.594;13.526;2022-09-09T06:27:12;24.80;99.90
17364;DHT22;8799;43.594;13.526;2022-09-09T06:29:41;24.80;99.90
17364;DHT22;8799;43.594;13.526;2022-09-09T06:32:09;24.70;99.90
17364;DHT22;8799;43.594;13.526;2022-09-09T06:34:41;24.70;99.90
17364;DHT22;8799;43.594;13.526;2022-09-09T06:37:09;24.70;99.90
17364;DHT22;8799;43.594;13.526;2022-09-09T06:39:38;24.70;99.90
17364;DHT22;8799;43.594;13.526;2022-09-09T06:42:08;24.70;99.90
17364;DHT22;8799;43.594;13.526;2022-09-09T06:44:36;24.70;99.90
17364;DHT22;8799;43.594;13.526;2022-09-09T06:47:04;24.70;99.90
17364;DHT22;8799;43.594;13.526;2022-09-09T06:49:32;24.70;99.90
17364;DHT22;8799;43.594;13.526;2022-09-09T06:52:00;24.70;99.90
17364;DHT22;8799;43.594;13.526;2022-09-09T06:54:28;24.80;99.90
17364;DHT22;8799;43.594;13.526;2022-09-09T06:56:56;24.80;99.90
17364;DHT22;8799;43.594;13.526;2022-09-09T06:59:27;24.70;99.90
17364;DHT22;8799;43.594;13.526;2022-09-09T07:01:56;24.80;99.90
17364;DHT22;8799;43.594;13.526;2022-09-09T07:04:24;24.80;99.90
17364;DHT22;8799;43.594;13.526;2022-09-09T07:06:51;24.90;99.90
17364;DHT22;8799;43.594;13.526;2022-09-09T07:09:20;24.90;99.90
17364;DHT22;8799;43.594;13.526;2022-09-09T07:11:49;24.90;99.90
17364;DHT22;8799;43.594;13.526;2022-09-09T07:14:20;24.90;99.90
17364;DHT22;8799;43.594;13.526;2022-09-09T07:16:49;24.90;99.90
17364;DHT22;8799;43.594;13.526;2022-09-09T07:19:17;24.90;99.90
17364;DHT22;8799;43.594;13.526;2022-09-09T07:21:45;24.90;99.90
17364;DHT22;8799;43.594;13.526;2022-09-09T07:24:12;24.90;99.90
17364;DHT22;8799;43.594;13.526;2022-09-09T07:26:40;24.90;99.90
17364;DHT22;8799;43.594;13.526;2022-09-09T07:29:08;24.90;99.90
17364;DHT22;8799;43.594;13.526;2022-09-09T07:31:37;24.90;99.90
17364;DHT22;8799;43.594;13.526;2022-09-09T07:34:06;25.00;99.90
17364;DHT22;8799;43.594;13.526;2022-09-09T07:36:35;25.00;99.90
17364;DHT22;8799;43.594;13.526;2022-09-09T07:39:05;25.00;99.90
17364;DHT22;8799;43.594;13.526;2022-09-09T07:41:36;25.00;99.90
17364;DHT22;8799;43.594;13.526;2022-09-09T07:44:05;25.00;99.90
17364;DHT22;8799;43.594;13.526;2022-09-09T07:46:34;25.10;99.90
17364;DHT22;8799;43.594;13.526;2022-09-09T07:49:02;25.10;99.90
17364;DHT22;8799;43.594;13.526;2022-09-09T07:51:35;25.10;99.90
17364;DHT22;8799;43.594;13.526;2022-09-09T07:54:04;25.10;99.90
17364;DHT22;8799;43.594;13.526;2022-09-09T07:56:32;25.10;99.90
17364;DHT22;8799;43.594;13.526;2022-09-09T07:59:00;25.20;99.90
17364;DHT22;8799;43.594;13.526;2022-09-09T08:01:31;25.20;99.90
17364;DHT22;8799;43.594;13.526;2022-09-09T08:04:01;25.20;99.90
17364;DHT22;8799;43.594;13.526;2022-09-09T08:06:32;25.20;99.90
17364;DHT22;8799;43.594;13.526;2022-09-09T08:09:00;25.20;99.90
17364;DHT22;8799;43.594;13.526;2022-09-09T08:11:29;25.30;99.90
17364;DHT22;8799;43.594;13.526;2022-09-09T08:13:57;25.30;99.90
17364;DHT22;8799;43.594;13.526;2022-09-09T08:16:27;25.30;99.90
17364;DHT22;8799;43.594;13.526;2022-09-09T08:18:56;25.30;99.90
17364;DHT22;8799;43.594;13.526;2022-09-09T08:21:25;25.30;99.90
17364;DHT22;8799;43.594;13.526;2022-09-09T08:23:56;25.40;99.90
17364;DHT22;8799;43.594;13.526;2022-09-09T08:26:26;25.40;99.90
17364;DHT22;8799;43.594;13.526;2022-09-09T08:28:56;25.40;99.90
17364;DHT22;8799;43.594;13.526;2022-09-09T08:31:25;25.40;99.90
17364;DHT22;8799;43.594;13.526;2022-09-09T08:33:54;25.40;99.90
17364;DHT22;8799;43.594;13.526;2022-09-09T08:36:23;25.40;99.90
17364;DHT22;8799;43.594;13.526;2022-09-09T08:38:52;25.40;99.90
17364;DHT22;8799;43.594;13.526;2022-09-09T08:44:28;25.50;99.90
17364;DHT22;8799;43.594;13.526;2022-09-09T08:47:06;25.40;99.90
17364;DHT22;8799;43.594;13.526;2022-09-09T08:49:47;25.50;99.90
17364;DHT22;8799;43.594;13.526;2022-09-09T08:52:21;25.50;99.90
17364;DHT22;8799;43.594;13.526;2022-09-09T08:54:51;25.40;99.90
17364;DHT22;8799;43.594;13.526;2022-09-09T08:57:25;25.50;99.90
17364;DHT22;8799;43.594;13.526;2022-09-09T08:59:55;25.50;99.90
17364;DHT22;8799;43.594;13.526;2022-09-09T09:02:26;25.50;99.90
17364;DHT22;8799;43.594;13.526;2022-09-09T09:05:09;25.60;99.00
17364;DHT22;8799;43.594;13.526;2022-09-09T09:07:50;25.70;98.40
17364;DHT22;8799;43.594;13.526;2022-09-09T09:10:35;25.70;96.80
17364;DHT22;8799;43.594;13.526;2022-09-09T09:13:15;25.80;95.60
17364;DHT22;8799;43.594;13.526;2022-09-09T09:15:46;25.70;96.10
17364;DHT22;8799;43.594;13.526;2022-09-09T09:18:17;25.80;96.10
17364;DHT22;8799;43.594;13.526;2022-09-09T09:20:50;25.70;95.80
17364;DHT22;8799;43.594;13.526;2022-09-09T09:23:23;25.70;95.70
17364;DHT22;8799;43.594;13.526;2022-09-09T09:25:53;25.80;95.90
17364;DHT22;8799;43.594;13.526;2022-09-09T09:28:26;25.80;95.20
17364;DHT22;8799;43.594;13.526;2022-09-09T09:30:57;25.80;93.60
17364;DHT22;8799;43.594;13.526;2022-09-09T09:33:31;25.80;93.90
17364;DHT22;8799;43.594;13.526;2022-09-09T09:36:02;25.70;93.40
17364;DHT22;8799;43.594;13.526;2022-09-09T09:38:34;25.70;94.60
17364;DHT22;8799;43.594;13.526;2022-09-09T09:41:03;25.70;94.70
17364;DHT22;8799;43.594;13.526;2022-09-09T09:43:33;25.70;95.60
17364;DHT22;8799;43.594;13.526;2022-09-09T09:46:04;25.70;96.50
17364;DHT22;8799;43.594;13.526;2022-09-09T09:48:31;25.70;96.00
17364;DHT22;8799;43.594;13.526;2022-09-09T09:51:08;25.90;91.30
17364;DHT22;8799;43.594;13.526;2022-09-09T09:53:37;25.90;93.10
17364;DHT22;8799;43.594;13.526;2022-09-09T09:56:08;25.90;91.40
17364;DHT22;8799;43.594;13.526;2022-09-09T09:58:49;25.90;92.40
17364;DHT22;8799;43.594;13.526;2022-09-09T10:01:22;25.90;93.00
17364;DHT22;8799;43.594;13.526;2022-09-09T10:03:53;25.90;94.20
17364;DHT22;8799;43.594;13.526;2022-09-09T10:06:33;25.90;95.00
17364;DHT22;8799;43.594;13.526;2022-09-09T10:09:02;25.90;95.50
17364;DHT22;8799;43.594;13.526;2022-09-09T10:11:44;25.90;95.90
17364;DHT22;8799;43.594;13.526;2022-09-09T10:14:20;25.90;96.10
17364;DHT22;8799;43.594;13.526;2022-09-09T10:17:02;25.90;94.90
17364;DHT22;8799;43.594;13.526;2022-09-09T10:19:34;26.00;90.70
17364;DHT22;8799;43.594;13.526;2022-09-09T10:22:12;26.00;92.20
17364;DHT22;8799;43.594;13.526;2022-09-09T10:27:42;26.20;87.80
17364;DHT22;8799;43.594;13.526;2022-09-09T10:30:16;26.20;87.60
17364;DHT22;8799;43.594;13.526;2022-09-09T10:32:49;26.20;82.80
17364;DHT22;8799;43.594;13.526;2022-09-09T10:35:30;26.20;86.70
17364;DHT22;8799;43.594;13.526;2022-09-09T10:38:16;26.20;89.80
17364;DHT22;8799;43.594;13.526;2022-09-09T10:41:00;26.20;91.00
17364;DHT22;8799;43.594;13.526;2022-09-09T10:43:47;26.10;93.40
17364;DHT22;8799;43.594;13.526;2022-09-09T10:46:26;26.20;94.90
17364;DHT22;8799;43.594;13.526;2022-09-09T10:49:08;26.20;96.00
17364;DHT22;8799;43.594;13.526;2022-09-09T10:51:44;26.20;98.00
17364;DHT22;8799;43.594;13.526;2022-09-09T10:54:25;26.20;99.90
17364;DHT22;8799;43.594;13.526;2022-09-09T10:57:00;26.20;99.80
17364;DHT22;8799;43.594;13.526;2022-09-09T10:59:34;26.20;99.90
17364;DHT22;8799;43.594;13.526;2022-09-09T11:02:14;26.10;99.90
17364;DHT22;8799;43.594;13.526;2022-09-09T11:04:49;26.10;99.90
17364;DHT22;8799;43.594;13.526;2022-09-09T11:07:26;26.10;99.90
17364;DHT22;8799;43.594;13.526;2022-09-09T11:09:59;26.10;99.90
17364;DHT22;8799;43.594;13.526;2022-09-09T11:12:30;26.10;99.90
17364;DHT22;8799;43.594;13.526;2022-09-09T11:15:03;26.10;99.90
17364;DHT22;8799;43.594;13.526;2022-09-09T11:17:39;26.10;99.90
17364;DHT22;8799;43.594;13.526;2022-09-09T11:20:12;26.10;99.90
17364;DHT22;8799;43.594;13.526;2022-09-09T11:22:44;26.10;99.90
17364;DHT22;8799;43.594;13.526;2022-09-09T11:25:16;26.10;99.90
17364;DHT22;8799;43.594;13.526;2022-09-09T11:28:02;26.10;99.90
17364;DHT22;8799;43.594;13.526;2022-09-09T11:30:43;26.10;99.90
17364;DHT22;8799;43.594;13.526;2022-09-09T11:36:26;26.10;99.90
17364;DHT22;8799;43.594;13.526;2022-09-09T11:38:59;26.20;99.90
17364;DHT22;8799;43.594;13.526;2022-09-09T11:41:34;26.10;99.90
17364;DHT22;8799;43.594;13.526;2022-09-09T11:44:10;26.10;99.90
17364;DHT22;8799;43.594;13.526;2022-09-09T11:46:39;26.10;99.90
17364;DHT22;8799;43.594;13.526;2022-09-09T11:49:26;26.20;99.90
17364;DHT22;8799;43.594;13.526;2022-09-09T11:51:56;26.20;99.90
17364;DHT22;8799;43.594;13.526;2022-09-09T11:54:31;26.10;99.90
17364;DHT22;8799;43.594;13.526;2022-09-09T11:57:02;26.10;99.50
17364;DHT22;8799;43.594;13.526;2022-09-09T11:59:31;26.10;99.40
17364;DHT22;8799;43.594;13.526;2022-09-09T12:02:00;26.10;99.50
17364;DHT22;8799;43.594;13.526;2022-09-09T12:14:38;26.10;98.90
17364;DHT22;8799;43.594;13.526;2022-09-09T12:17:19;26.10;98.80
17364;DHT22;8799;43.594;13.526;2022-09-09T12:20:00;26.10;98.80
17364;DHT22;8799;43.594;13.526;2022-09-09T12:22:37;26.10;98.20
17364;DHT22;8799;43.594;13.526;2022-09-09T12:25:18;26.10;98.70
17364;DHT22;8799;43.594;13.526;2022-09-09T12:27:59;26.10;99.20
17364;DHT22;8799;43.594;13.526;2022-09-09T12:30:34;26.10;99.80
17364;DHT22;8799;43.594;13.526;2022-09-09T12:33:11;26.10;99.90
17364;DHT22;8799;43.594;13.526;2022-09-09T12:35:43;26.10;99.90
17364;DHT22;8799;43.594;13.526;2022-09-09T12:38:16;26.10;99.90
17364;DHT22;8799;43.594;13.526;2022-09-09T12:40:54;26.10;99.90
17364;DHT22;8799;43.594;13.526;2022-09-09T12:43:24;26.20;98.90
17364;DHT22;8799;43.594;13.526;2022-09-09T12:45:57;26.20;98.00
17364;DHT22;8799;43.594;13.526;2022-09-09T12:48:33;26.20;97.90
17364;DHT22;8799;43.594;13.526;2022-09-09T12:51:02;26.20;97.80
17364;DHT22;8799;43.594;13.526;2022-09-09T12:53:33;26.20;98.10
17364;DHT22;8799;43.594;13.526;2022-09-09T12:56:05;26.20;98.40
17364;DHT22;8799;43.594;13.526;2022-09-09T12:58:35;26.20;98.00
17364;DHT22;8799;43.594;13.526;2022-09-09T13:01:05;26.20;97.90
17364;DHT22;8799;43.594;13.526;2022-09-09T13:03:42;26.20;97.70
17364;DHT22;8799;43.594;13.526;2022-09-09T13:06:17;26.20;98.00
17364;DHT22;8799;43.594;13.526;2022-09-09T13:08:46;27.50;98.90
17364;DHT22;8799;43.594;13.526;2022-09-09T13:11:17;26.20;98.00
17364;DHT22;8799;43.594;13.526;2022-09-09T13:13:51;26.20;97.40
17364;DHT22;8799;43.594;13.526;2022-09-09T13:16:25;26.30;96.90
17364;DHT22;8799;43.594;13.526;2022-09-09T13:18:58;26.30;96.90
17364;DHT22;8799;43.594;13.526;2022-09-09T13:21:34;26.30;98.50
17364;DHT22;8799;43.594;13.526;2022-09-09T13:24:04;26.30;98.90
17364;DHT22;8799;43.594;13.526;2022-09-09T13:26:33;26.20;99.20
17364;DHT22;8799;43.594;13.526;2022-09-09T13:29:14;26.20;99.90
17364;DHT22;8799;43.594;13.526;2022-09-09T13:31:46;26.20;99.90
17364;DHT22;8799;43.594;13.526;2022-09-09T13:34:27;26.10;99.90
17364;DHT22;8799;43.594;13.526;2022-09-09T13:36:59;26.10;99.90
17364;DHT22;8799;43.594;13.526;2022-09-09T13:39:29;26.10;99.90
17364;DHT22;8799;43.594;13.526;2022-09-09T13:41:57;26.20;99.90
17364;DHT22;8799;43.594;13.526;2022-09-09T13:44:27;26.20;99.90
17364;DHT22;8799;43.594;13.526;2022-09-09T13:47:05;26.30;98.00
17364;DHT22;8799;43.594;13.526;2022-09-09T13:49:33;26.40;97.40
17364;DHT22;8799;43.594;13.526;2022-09-09T13:52:08;26.30;97.80
17364;DHT22;8799;43.594;13.526;2022-09-09T13:54:40;26.30;97.50
17364;DHT22;8799;43.594;13.526;2022-09-09T13:57:15;26.30;96.20
17364;DHT22;8799;43.594;13.526;2022-09-09T13:59:44;26.30;96.70
17364;DHT22;8799;43.594;13.526;2022-09-09T14:02:14;26.30;96.90
17364;DHT22;8799;43.594;13.526;2022-09-09T14:04:42;26.30;97.10
17364;DHT22;8799;43.594;13.526;2022-09-09T14:07:11;26.30;96.80
17364;DHT22;8799;43.594;13.526;2022-09-09T14:09:39;26.20;97.30
17364;DHT22;8799;43.594;13.526;2022-09-09T14:12:10;26.20;97.10
17364;DHT22;8799;43.594;13.526;2022-09-09T14:14:38;26.20;95.30
17364;DHT22;8799;43.594;13.526;2022-09-09T14:17:07;26.30;95.20
17364;DHT22;8799;43.594;13.526;2022-09-09T14:19:37;26.40;95.80
17364;DHT22;8799;43.594;13.526;2022-09-09T14:22:05;26.40;95.40
17364;DHT22;8799;43.594;13.526;2022-09-09T14:24:33;26.40;95.50
17364;DHT22;8799;43.594;13.526;2022-09-09T14:27:01;26.40;94.20
17364;DHT22;8799;43.594;13.526;2022-09-09T14:29:29;26.40;94.00
17364;DHT22;8799;43.594;13.526;2022-09-09T14:31:57;26.40;94.60
17364;DHT22;8799;43.594;13.526;2022-09-09T14:34:26;26.50;95.10
17364;DHT22;8799;43.594;13.526;2022-09-09T14:36:55;26.40;94.70
17364;DHT22;8799;43.594;13.526;2022-09-09T14:39:23;26.50;93.20
17364;DHT22;8799;43.594;13.526;2022-09-09T14:41:51;26.50;92.70
17364;DHT22;8799;43.594;13.526;2022-09-09T14:44:19;26.50;92.60
17364;DHT22;8799;43.594;13.526;2022-09-09T14:46:47;26.60;94.80
17364;DHT22;8799;43.594;13.526;2022-09-09T14:49:16;26.70;95.20
17364;DHT22;8799;43.594;13.526;2022-09-09T14:51:43;26.70;95.10
17364;DHT22;8799;43.594;13.526;2022-09-09T14:54:13;26.70;94.90
17364;DHT22;8799;43.594;13.526;2022-09-09T14:56:40;26.70;93.20
17364;DHT22;8799;43.594;13.526;2022-09-09T14:59:08;26.70;92.40
17364;DHT22;8799;43.594;13.526;2022-09-09T15:01:36;26.70;93.10
17364;DHT22;8799;43.594;13.526;2022-09-09T15:04:05;26.70;91.10
17364;DHT22;8799;43.594;13.526;2022-09-09T15:06:34;26.70;90.40
17364;DHT22;8799;43.594;13.526;2022-09-09T15:09:02;26.70;87.80
17364;DHT22;8799;43.594;13.526;2022-09-09T15:11:34;26.70;87.10
17364;DHT22;8799;43.594;13.526;2022-09-09T15:14:03;26.70;89.40
17364;DHT22;8799;43.594;13.526;2022-09-09T15:16:31;26.80;88.10
17364;DHT22;8799;43.594;13.526;2022-09-09T15:19:01;26.80;88.20
17364;DHT22;8799;43.594;13.526;2022-09-09T15:21:30;26.80;87.10
17364;DHT22;8799;43.594;13.526;2022-09-09T15:23:58;26.80;86.20
17364;DHT22;8799;43.594;13.526;2022-09-09T15:26:27;26.80;86.00
17364;DHT22;8799;43.594;13.526;2022-09-09T15:28:58;26.80;86.40
17364;DHT22;8799;43.594;13.526;2022-09-09T15:31:28;26.70;81.70
17364;DHT22;8799;43.594;13.526;2022-09-09T15:33:58;26.70;76.30
17364;DHT22;8799;43.594;13.526;2022-09-09T15:36:29;26.70;70.60
17364;DHT22;8799;43.594;13.526;2022-09-09T15:38:58;26.70;71.00
17364;DHT22;8799;43.594;13.526;2022-09-09T15:41:26;26.70;69.50
17364;DHT22;8799;43.594;13.526;2022-09-09T15:43:56;26.70;69.00
17364;DHT22;8799;43.594;13.526;2022-09-09T15:46:28;26.70;69.00
17364;DHT22;8799;43.594;13.526;2022-09-09T15:48:58;26.70;67.30
17364;DHT22;8799;43.594;13.526;2022-09-09T15:51:31;26.70;65.60
17364;DHT22;8799;43.594;13.526;2022-09-09T15:53:59;26.70;65.30
17364;DHT22;8799;43.594;13.526;2022-09-09T15:56:27;26.70;64.60
17364;DHT22;8799;43.594;13.526;2022-09-09T15:58:59;26.70;62.20
17364;DHT22;8799;43.594;13.526;2022-09-09T16:01:27;26.70;60.20
17364;DHT22;8799;43.594;13.526;2022-09-09T16:03:56;26.80;60.60
17364;DHT22;8799;43.594;13.526;2022-09-09T16:06:25;26.80;61.80
17364;DHT22;8799;43.594;13.526;2022-09-09T16:08:55;26.80;61.00
17364;DHT22;8799;43.594;13.526;2022-09-09T16:11:24;26.80;60.80
17364;DHT22;8799;43.594;13.526;2022-09-09T16:13:53;26.80;60.60
17364;DHT22;8799;43.594;13.526;2022-09-09T16:16:24;26.70;60.20